createdAt,value
2018-02-23T00:02:26.606Z,74.20
2018-02-23T00:04:54.805Z,74.30
2018-02-23T00:07:22.989Z,74.30
2018-02-23T00:09:50.416Z,74.60
2018-02-23T00:12:18.636Z,75.40
2018-02-23T00:14:46.066Z,75.40
2018-02-23T00:17:13.505Z,76.10
2018-02-23T00:19:41.698Z,75.70
2018-02-23T00:22:09.117Z,75.70
2018-02-23T00:24:36.558Z,76.10
2018-02-23T00:27:03.982Z,76.00
2018-02-23T00:29:31.457Z,76.10
2018-02-23T00:31:58.912Z,76.20
2018-02-23T00:34:26.337Z,76.90
2018-02-23T00:36:53.776Z,76.70
2018-02-23T00:39:21.968Z,77.20
2018-02-23T00:41:49.395Z,77.10
2018-02-23T00:44:17.741Z,77.00
2018-02-23T00:46:45.180Z,76.90
2018-02-23T00:49:12.601Z,77.20
2018-02-23T00:51:40.815Z,77.20
2018-02-23T00:54:08.252Z,77.20
2018-02-23T00:56:35.685Z,77.20
2018-02-23T00:59:03.114Z,77.30
2018-02-23T01:01:30.551Z,77.70
2018-02-23T01:03:57.978Z,77.80
2018-02-23T01:06:25.629Z,77.70
2018-02-23T01:08:53.830Z,78.30
2018-02-23T01:11:21.268Z,78.30
2018-02-23T01:16:47.217Z,78.30
2018-02-23T01:19:14.772Z,78.20
2018-02-23T01:21:42.226Z,78.20
2018-02-23T01:24:10.546Z,78.30
2018-02-23T01:26:38.089Z,79.00
2018-02-23T01:29:05.664Z,78.30
2018-02-23T01:31:33.254Z,78.60
2018-02-23T01:34:00.778Z,78.90
2018-02-23T01:36:28.298Z,78.90
2018-02-23T01:38:55.891Z,79.20
2018-02-23T01:41:23.468Z,78.90
2018-02-23T01:43:51.026Z,79.10
2018-02-23T01:46:18.534Z,79.10
2018-02-23T01:48:45.974Z,79.50
2018-02-23T01:51:13.517Z,79.50
2018-02-23T01:53:41.035Z,79.50
2018-02-23T01:56:08.568Z,79.60
2018-02-23T01:58:36.864Z,81.50
2018-02-23T02:01:04.471Z,80.60
2018-02-23T02:03:32.013Z,80.60
2018-02-23T02:05:59.573Z,80.70
2018-02-23T02:08:27.190Z,81.00
2018-02-23T02:10:54.720Z,80.90
2018-02-23T02:13:22.298Z,80.80
2018-02-23T02:15:49.897Z,81.10
2018-02-23T02:18:19.020Z,81.70
2018-02-23T02:20:46.525Z,81.70
2018-02-23T02:23:13.983Z,81.40
2018-02-23T02:25:41.466Z,81.50
2018-02-23T02:28:09.067Z,81.50
2018-02-23T02:30:36.590Z,81.80
2018-02-23T02:33:04.144Z,81.70
2018-02-23T02:35:31.650Z,81.50
2018-02-23T02:37:59.098Z,81.40
2018-02-23T02:40:26.589Z,81.40
2018-02-23T02:42:54.098Z,81.30
2018-02-23T02:45:21.610Z,81.50
2018-02-23T02:47:49.199Z,81.60
2018-02-23T02:50:16.754Z,82.10
2018-02-23T02:52:45.027Z,81.90
2018-02-23T02:55:12.540Z,81.90
2018-02-23T02:57:40.088Z,81.90
2018-02-23T03:00:07.692Z,81.80
2018-02-23T03:02:35.205Z,81.90
2018-02-23T03:05:03.495Z,81.80
2018-02-23T03:07:30.955Z,81.90
2018-02-23T03:09:58.538Z,81.70
2018-02-23T03:12:26.018Z,81.90
2018-02-23T03:14:53.581Z,81.80
2018-02-23T03:17:21.036Z,82.00
2018-02-23T03:19:48.518Z,82.10
2018-02-23T03:22:16.030Z,82.20
2018-02-23T03:24:43.580Z,82.60
2018-02-23T03:27:11.098Z,82.50
2018-02-23T03:29:38.615Z,82.60
2018-02-23T03:32:06.094Z,82.70
2018-02-23T03:34:33.602Z,83.40
2018-02-23T03:37:01.129Z,83.10
2018-02-23T03:39:28.666Z,83.90
2018-02-23T03:41:56.230Z,84.30
2018-02-23T03:44:23.751Z,84.60
2018-02-23T03:46:51.382Z,84.50
2018-02-23T03:49:18.963Z,84.10
2018-02-23T03:51:46.508Z,84.00
2018-02-23T03:54:14.030Z,84.10
2018-02-23T03:56:43.517Z,84.10
2018-02-23T03:59:11.050Z,84.00
2018-02-23T04:01:38.537Z,84.10
2018-02-23T04:04:06.072Z,83.90
2018-02-23T04:06:33.642Z,83.90
2018-02-23T04:09:02.050Z,84.50
2018-02-23T04:11:29.594Z,84.40
2018-02-23T04:13:57.902Z,84.90
2018-02-23T04:16:25.666Z,84.80
2018-02-23T04:18:53.212Z,84.90
2018-02-23T04:21:21.270Z,85.10
2018-02-23T04:23:48.773Z,85.40
2018-02-23T04:26:16.254Z,85.20
2018-02-23T04:28:43.779Z,84.90
2018-02-23T04:31:11.269Z,84.90
2018-02-23T04:33:38.800Z,85.00
2018-02-23T04:36:06.419Z,85.00
2018-02-23T04:38:34.760Z,85.10
2018-02-23T04:41:02.298Z,85.00
2018-02-23T04:43:29.883Z,85.30
2018-02-23T04:45:57.500Z,85.60
2018-02-23T04:48:25.055Z,85.50
2018-02-23T04:50:52.575Z,86.30
2018-02-23T04:53:20.903Z,86.30
2018-02-23T04:55:48.479Z,86.20
2018-02-23T04:58:16.028Z,86.50
2018-02-23T05:00:43.662Z,87.00
2018-02-23T05:03:11.188Z,87.00
2018-02-23T05:05:38.787Z,87.50
2018-02-23T05:08:06.345Z,87.80
2018-02-23T05:10:33.935Z,88.20
2018-02-23T05:13:01.412Z,88.10
2018-02-23T05:15:28.942Z,87.80
2018-02-23T05:17:56.369Z,86.80
2018-02-23T05:20:24.568Z,86.30
2018-02-23T05:22:52.093Z,86.30
2018-02-23T05:25:20.439Z,85.80
2018-02-23T05:27:47.982Z,85.80
2018-02-23T05:30:15.435Z,85.80
2018-02-23T05:32:42.998Z,86.00
2018-02-23T05:35:10.490Z,86.00
2018-02-23T05:37:38.023Z,85.70
2018-02-23T05:40:05.432Z,85.60
2018-02-23T05:42:32.941Z,86.40
2018-02-23T05:45:00.460Z,86.30
2018-02-23T05:47:27.971Z,86.10
2018-02-23T05:49:55.520Z,86.30
2018-02-23T05:52:22.966Z,86.70
2018-02-23T05:54:50.542Z,86.60
2018-02-23T05:57:19.596Z,86.30
2018-02-23T05:59:47.034Z,86.30
2018-02-23T06:02:15.304Z,86.00
2018-02-23T06:04:43.598Z,85.70
2018-02-23T06:07:11.107Z,85.60
2018-02-23T06:09:38.532Z,85.80
2018-02-23T06:12:05.989Z,85.80
2018-02-23T06:14:33.429Z,86.50
2018-02-23T06:17:00.862Z,86.40
2018-02-23T06:19:34.091Z,86.60
2018-02-23T06:22:01.611Z,86.40
2018-02-23T06:24:29.149Z,85.40
2018-02-23T06:26:56.632Z,84.80
2018-02-23T06:29:24.888Z,83.50
2018-02-23T06:31:52.380Z,83.50
2018-02-23T06:34:20.135Z,83.70
2018-02-23T06:36:47.636Z,83.80
2018-02-23T06:39:17.110Z,83.20
2018-02-23T06:41:45.394Z,80.00
2018-02-23T06:44:12.963Z,79.90
2018-02-23T06:46:40.739Z,79.70
2018-02-23T06:49:08.255Z,77.80
2018-02-23T06:51:35.866Z,75.10
2018-02-23T06:54:03.507Z,74.00
2018-02-23T06:56:31.128Z,71.40
2018-02-23T06:58:58.709Z,71.50
2018-02-23T07:01:27.067Z,70.00
2018-02-23T07:03:54.639Z,69.90
2018-02-23T07:06:23.419Z,69.00
2018-02-23T07:09:01.255Z,67.80
2018-02-23T07:11:46.599Z,66.90
2018-02-23T07:16:47.533Z,66.60
2018-02-23T07:19:15.130Z,67.20
2018-02-23T07:21:43.474Z,66.00
2018-02-23T07:24:11.077Z,66.00
2018-02-23T07:26:39.637Z,66.30
2018-02-23T07:29:07.988Z,65.90
2018-02-23T07:31:35.557Z,65.00
2018-02-23T07:34:03.431Z,65.70
2018-02-23T07:36:31.125Z,66.20
2018-02-23T07:38:58.736Z,64.90
2018-02-23T07:41:26.292Z,63.60
2018-02-23T07:43:53.850Z,63.80
2018-02-23T07:46:21.411Z,62.80
2018-02-23T07:48:48.926Z,60.50
2018-02-23T07:51:16.494Z,61.50
2018-02-23T07:53:47.634Z,59.90
2018-02-23T07:56:15.207Z,58.60
2018-02-23T07:58:42.889Z,58.50
2018-02-23T08:01:10.465Z,57.90
2018-02-23T08:03:38.095Z,57.00
2018-02-23T08:06:05.629Z,54.60
2018-02-23T08:08:33.143Z,53.10
2018-02-23T08:11:00.737Z,51.80
2018-02-23T08:13:28.257Z,48.80
2018-02-23T08:15:55.808Z,46.40
2018-02-23T08:18:23.455Z,43.30
2018-02-23T08:20:51.013Z,42.40
2018-02-23T08:23:19.178Z,40.00
2018-02-23T08:25:46.762Z,38.40
2018-02-23T08:28:14.347Z,38.50
2018-02-23T08:30:41.941Z,38.50
2018-02-23T08:33:10.295Z,37.30
2018-02-23T08:35:37.888Z,37.30
2018-02-23T08:38:05.453Z,39.00
2018-02-23T08:40:32.979Z,39.50
2018-02-23T08:43:00.476Z,39.10
2018-02-23T08:45:28.080Z,39.20
2018-02-23T08:47:55.628Z,39.20
2018-02-23T08:50:23.118Z,39.00
2018-02-23T08:52:50.716Z,38.20
2018-02-23T08:55:19.958Z,34.70
2018-02-23T08:57:47.500Z,34.60
2018-02-23T09:00:18.562Z,32.90
2018-02-23T09:02:46.139Z,32.00
2018-02-23T09:05:13.663Z,31.10
2018-02-23T09:07:41.150Z,29.70
2018-02-23T09:10:08.638Z,29.50
2018-02-23T09:12:36.966Z,28.90
2018-02-23T09:15:04.431Z,28.90
2018-02-23T09:17:31.989Z,29.00
2018-02-23T09:19:59.562Z,28.70
2018-02-23T09:22:28.089Z,28.10
2018-02-23T09:24:55.689Z,28.10
2018-02-23T09:27:24.005Z,27.40
2018-02-23T09:29:51.551Z,27.30
2018-02-23T09:32:38.341Z,26.50
2018-02-23T09:35:05.912Z,26.40
2018-02-23T09:37:33.473Z,26.00
2018-02-23T09:40:01.044Z,26.00
2018-02-23T09:42:29.377Z,25.40
2018-02-23T09:44:57.025Z,25.30
2018-02-23T09:47:24.586Z,24.80
2018-02-23T09:49:52.142Z,24.20
2018-02-23T09:52:19.704Z,23.90
2018-02-23T09:54:47.214Z,24.60
2018-02-23T09:57:14.779Z,25.40
2018-02-23T09:59:42.415Z,25.50
2018-02-23T10:02:10.100Z,25.10
2018-02-23T10:04:37.690Z,24.80
2018-02-23T10:07:05.209Z,24.50
2018-02-23T10:09:32.779Z,23.60
2018-02-23T10:12:00.298Z,24.00
2018-02-23T10:14:27.880Z,23.30
2018-02-23T10:16:55.470Z,23.90
2018-02-23T10:19:23.752Z,23.30
2018-02-23T10:21:51.460Z,23.30
2018-02-23T10:24:20.752Z,25.00
2018-02-23T10:26:48.333Z,25.00
2018-02-23T10:29:15.906Z,24.80
2018-02-23T10:31:43.534Z,24.30
2018-02-23T10:34:11.080Z,24.30
2018-02-23T10:36:38.657Z,23.40
2018-02-23T10:39:06.272Z,23.50
2018-02-23T10:41:34.621Z,22.30
2018-02-23T10:44:02.221Z,22.20
2018-02-23T10:46:29.749Z,22.60
2018-02-23T10:48:57.293Z,22.20
2018-02-23T10:51:24.862Z,22.30
2018-02-23T10:53:52.447Z,21.90
2018-02-23T10:56:20.956Z,22.60
2018-02-23T10:58:48.583Z,22.60
2018-02-23T11:01:16.887Z,22.30
2018-02-23T11:03:44.450Z,22.20
2018-02-23T11:06:12.110Z,22.50
2018-02-23T11:08:39.751Z,21.70
2018-02-23T11:11:07.316Z,21.90
2018-02-23T11:13:34.894Z,22.60
2018-02-23T11:16:02.470Z,22.80
2018-02-23T11:18:29.995Z,22.50
2018-02-23T11:20:58.284Z,21.50
2018-02-23T11:23:25.842Z,21.50
2018-02-23T11:25:53.515Z,21.60
2018-02-23T11:28:21.094Z,22.40
2018-02-23T11:30:48.776Z,22.60
2018-02-23T11:33:16.403Z,22.40
2018-02-23T11:35:43.939Z,21.80
2018-02-23T11:38:11.378Z,21.20
2018-02-23T11:40:38.803Z,21.20
2018-02-23T11:43:06.240Z,20.80
2018-02-23T11:45:33.665Z,20.90
2018-02-23T11:48:01.102Z,21.00
2018-02-23T11:50:28.581Z,21.20
2018-02-23T11:52:55.982Z,21.20
2018-02-23T11:55:23.411Z,21.10
2018-02-23T11:57:51.613Z,21.00
2018-02-23T12:00:19.524Z,21.00
2018-02-23T12:02:47.727Z,21.90
2018-02-23T12:05:15.931Z,21.90
2018-02-23T12:07:43.396Z,22.30
2018-02-23T12:10:10.820Z,22.20
2018-02-23T12:12:39.038Z,22.10
2018-02-23T12:15:06.477Z,22.10
2018-02-23T12:17:33.916Z,21.60
2018-02-23T12:20:02.131Z,21.60
2018-02-23T12:22:29.564Z,21.60
2018-02-23T12:24:56.993Z,22.00
2018-02-23T12:27:25.225Z,22.20
2018-02-23T12:29:52.648Z,22.10
2018-02-23T12:32:20.089Z,22.10
2018-02-23T12:34:47.528Z,21.70
2018-02-23T12:37:14.988Z,21.80
2018-02-23T12:39:42.413Z,21.60
2018-02-23T12:42:09.872Z,21.50
2018-02-23T12:44:37.357Z,21.80
2018-02-23T12:47:04.740Z,21.40
2018-02-23T12:49:32.931Z,21.00
2018-02-23T12:52:00.577Z,21.00
2018-02-23T12:54:28.797Z,20.70
2018-02-23T12:56:56.242Z,20.60
2018-02-23T12:59:23.652Z,20.70
2018-02-23T13:01:51.869Z,20.90
2018-02-23T13:04:20.453Z,21.00
2018-02-23T13:06:47.884Z,20.90
2018-02-23T13:09:16.073Z,20.70
2018-02-23T13:11:43.510Z,20.60
2018-02-23T13:14:11.724Z,20.90
2018-02-23T13:16:39.186Z,20.90
2018-02-23T13:19:06.597Z,20.80
2018-02-23T13:21:35.015Z,21.00
2018-02-23T13:24:02.492Z,21.00
2018-02-23T13:26:29.960Z,21.00
2018-02-23T13:28:57.418Z,21.20
2018-02-23T13:31:24.868Z,20.80
2018-02-23T13:33:52.320Z,20.90
2018-02-23T13:36:19.788Z,21.50
2018-02-23T13:38:47.761Z,20.80
2018-02-23T13:41:20.809Z,21.00
2018-02-23T13:43:48.258Z,20.80
2018-02-23T13:46:15.689Z,20.90
2018-02-23T13:48:43.133Z,20.60
2018-02-23T13:51:10.571Z,20.40
2018-02-23T13:53:43.629Z,20.10
2018-02-23T13:56:11.061Z,20.60
2018-02-23T13:58:39.252Z,20.10
2018-02-23T14:01:06.695Z,20.10
2018-02-23T14:03:34.904Z,20.20
2018-02-23T14:06:04.502Z,20.10
2018-02-23T14:08:31.947Z,20.00
2018-02-23T14:10:59.386Z,19.80
2018-02-23T14:13:27.591Z,20.60
2018-02-23T14:15:55.028Z,20.60
2018-02-23T14:18:23.244Z,20.30
2018-02-23T14:20:50.691Z,20.30
2018-02-23T14:23:18.123Z,20.60
2018-02-23T14:25:46.325Z,21.20
2018-02-23T14:28:13.783Z,21.20
2018-02-23T14:30:41.204Z,21.10
2018-02-23T14:33:09.413Z,21.00
2018-02-23T14:35:36.851Z,21.00
2018-02-23T14:38:04.791Z,20.90
2018-02-23T14:40:32.257Z,21.70
2018-02-23T14:43:00.511Z,22.40
2018-02-23T14:45:27.961Z,22.30
2018-02-23T14:47:55.388Z,22.40
2018-02-23T14:50:34.682Z,22.40
2018-02-23T14:53:02.887Z,23.50
2018-02-23T14:55:30.338Z,23.50
2018-02-23T14:57:58.534Z,24.70
2018-02-23T15:00:25.963Z,24.70
2018-02-23T15:02:53.397Z,25.80
2018-02-23T15:05:20.837Z,26.60
2018-02-23T15:07:48.274Z,26.30
2018-02-23T15:10:15.715Z,27.20
2018-02-23T15:12:43.146Z,27.00
2018-02-23T15:15:11.349Z,27.80
2018-02-23T15:17:38.798Z,27.80
2018-02-23T15:20:06.987Z,28.30
2018-02-23T15:22:34.426Z,28.30
2018-02-23T15:25:01.904Z,28.80
2018-02-23T15:27:29.326Z,28.90
2018-02-23T15:29:57.540Z,28.70
2018-02-23T15:32:28.925Z,28.70
2018-02-23T15:34:56.357Z,28.70
2018-02-23T15:37:23.789Z,27.80
2018-02-23T15:39:51.223Z,27.20
2018-02-23T15:42:21.289Z,27.10
2018-02-23T15:44:48.727Z,27.10
2018-02-23T15:47:16.158Z,27.20
2018-02-23T15:49:45.171Z,27.70
2018-02-23T15:52:15.506Z,27.70
2018-02-23T15:54:42.953Z,27.90
2018-02-23T15:57:10.421Z,28.10
2018-02-23T15:59:37.857Z,28.10
2018-02-23T16:02:05.292Z,28.50
2018-02-23T16:04:33.597Z,29.10
2018-02-23T16:07:00.957Z,29.00
2018-02-23T16:09:28.393Z,29.70
2018-02-23T16:11:56.588Z,31.60
2018-02-23T16:14:24.047Z,31.60
2018-02-23T16:16:51.464Z,32.10
2018-02-23T16:19:18.914Z,32.40
2018-02-23T16:21:46.339Z,32.70
2018-02-23T16:24:13.761Z,33.10
2018-02-23T16:26:41.964Z,33.60
2018-02-23T16:29:09.403Z,33.50
2018-02-23T16:31:36.823Z,34.00
2018-02-23T16:34:04.262Z,34.10
2018-02-23T16:36:31.690Z,34.70
2018-02-23T16:38:59.109Z,35.40
2018-02-23T16:41:27.319Z,35.60
2018-02-23T16:43:54.761Z,35.60
2018-02-23T16:46:23.119Z,36.00
2018-02-23T16:48:51.317Z,36.40
2018-02-23T16:51:18.747Z,36.40
2018-02-23T16:53:46.952Z,36.60
2018-02-23T16:56:14.386Z,36.50
2018-02-23T16:58:42.972Z,36.80
2018-02-23T17:01:11.177Z,37.10
2018-02-23T17:03:38.609Z,37.10
2018-02-23T17:06:06.812Z,37.30
2018-02-23T17:08:34.253Z,37.10
2018-02-23T17:11:01.691Z,37.60
2018-02-23T17:13:29.899Z,37.80
2018-02-23T17:15:57.328Z,37.80
2018-02-23T17:18:25.585Z,37.90
2018-02-23T17:20:53.019Z,37.90
2018-02-23T17:23:20.448Z,38.40
2018-02-23T17:25:47.895Z,38.90
2018-02-23T17:28:15.330Z,39.20
2018-02-23T17:30:43.523Z,39.50
2018-02-23T17:33:10.961Z,39.40
2018-02-23T17:35:39.209Z,39.90
2018-02-23T17:38:06.597Z,39.90
2018-02-23T17:40:34.809Z,40.50
2018-02-23T17:43:02.276Z,40.60
2018-02-23T17:45:29.720Z,40.90
2018-02-23T17:47:57.952Z,40.90
2018-02-23T17:50:26.157Z,42.70
2018-02-23T17:52:53.588Z,42.70
2018-02-23T17:55:21.792Z,43.50
2018-02-23T17:57:49.228Z,43.40
2018-02-23T18:00:17.437Z,43.50
2018-02-23T18:02:44.874Z,43.50
2018-02-23T18:05:12.298Z,43.10
2018-02-23T18:07:39.751Z,43.30
2018-02-23T18:10:07.181Z,43.80
2018-02-23T18:12:34.619Z,43.50
2018-02-23T18:15:02.035Z,44.20
2018-02-23T18:17:30.282Z,44.50
2018-02-23T18:19:57.769Z,44.50
2018-02-23T18:22:25.190Z,44.30
2018-02-23T18:24:52.622Z,44.50
2018-02-23T18:27:20.801Z,44.40
2018-02-23T18:29:48.220Z,44.40
2018-02-23T18:32:16.423Z,44.70
2018-02-23T18:34:43.853Z,44.70
2018-02-23T18:37:12.057Z,45.80
2018-02-23T18:39:39.489Z,45.50
2018-02-23T18:42:07.723Z,45.80
2018-02-23T18:44:35.145Z,45.80
2018-02-23T18:47:02.586Z,45.70
2018-02-23T18:49:30.805Z,45.70
2018-02-23T18:51:58.256Z,45.70
2018-02-23T18:54:25.751Z,46.40
2018-02-23T18:56:53.142Z,46.30
2018-02-23T18:59:20.950Z,46.00
2018-02-23T19:01:48.395Z,45.80
2018-02-23T19:04:15.874Z,46.40
2018-02-23T19:06:43.337Z,46.30
2018-02-23T19:09:10.834Z,46.20
2018-02-23T19:11:38.221Z,46.20
2018-02-23T19:14:05.632Z,45.70
2018-02-23T19:16:33.837Z,45.70
2018-02-23T19:19:01.264Z,45.50
2018-02-23T19:21:29.460Z,44.80
2018-02-23T19:23:56.888Z,44.80
2018-02-23T19:26:24.321Z,44.70
2018-02-23T19:28:51.773Z,44.20
2018-02-23T19:31:19.205Z,44.60
2018-02-23T19:33:46.631Z,43.90
2018-02-23T19:36:14.845Z,43.70
2018-02-23T19:38:42.258Z,43.70
2018-02-23T19:41:10.465Z,42.90
2018-02-23T19:43:37.918Z,42.90
2018-02-23T19:46:05.358Z,42.70
2018-02-23T19:48:33.555Z,42.50
2018-02-23T19:51:00.996Z,42.50
2018-02-23T19:53:29.192Z,42.70
2018-02-23T19:55:56.626Z,42.60
2018-02-23T19:58:24.063Z,42.60
2018-02-23T20:00:51.485Z,42.60
2018-02-23T20:03:19.683Z,42.80
2018-02-23T20:05:47.123Z,42.80
2018-02-23T20:08:14.564Z,42.70
2018-02-23T20:10:41.969Z,43.00
2018-02-23T20:13:10.185Z,43.20
2018-02-23T20:15:37.625Z,43.20
2018-02-23T20:18:05.071Z,43.40
2018-02-23T20:20:32.488Z,43.30
2018-02-23T20:22:59.938Z,42.90
2018-02-23T20:25:27.362Z,42.40
2018-02-23T20:27:54.800Z,42.10
2018-02-23T20:30:23.025Z,42.60
2018-02-23T20:32:50.465Z,42.60
2018-02-23T20:35:17.904Z,42.90
2018-02-23T20:37:45.341Z,43.20
2018-02-23T20:40:13.528Z,43.00
2018-02-23T20:42:40.981Z,43.00
2018-02-23T20:45:09.165Z,43.50
2018-02-23T20:47:36.661Z,43.40
2018-02-23T20:50:04.086Z,43.60
2018-02-23T20:52:31.520Z,43.80
2018-02-23T20:54:59.717Z,44.30
2018-02-23T20:57:27.144Z,44.20
2018-02-23T20:59:55.334Z,44.60
2018-02-23T21:02:23.537Z,44.50
2018-02-23T21:04:50.980Z,44.50
2018-02-23T21:07:18.408Z,45.20
2018-02-23T21:09:46.614Z,44.50
2018-02-23T21:12:14.060Z,44.50
2018-02-23T21:14:41.484Z,44.60
2018-02-23T21:17:08.923Z,44.70
2018-02-23T21:19:36.357Z,44.80
2018-02-23T21:22:03.781Z,45.00
2018-02-23T21:24:31.987Z,45.40
2018-02-23T21:26:59.418Z,45.40
2018-02-23T21:29:27.611Z,45.30
2018-02-23T21:31:55.034Z,45.30
2018-02-23T21:34:23.251Z,45.70
2018-02-23T21:36:50.729Z,45.20
2018-02-23T21:39:18.149Z,45.30
2018-02-23T21:41:54.277Z,45.20
2018-02-23T21:44:21.726Z,45.30
2018-02-23T21:46:49.144Z,45.40
2018-02-23T21:49:16.587Z,45.60
2018-02-23T21:51:44.010Z,45.00
2018-02-23T21:54:11.478Z,45.30
2018-02-23T21:56:39.681Z,45.90
2018-02-23T21:59:07.863Z,46.00
2018-02-23T22:01:35.300Z,46.00
2018-02-23T22:04:02.745Z,45.90
2018-02-23T22:06:30.937Z,46.00
2018-02-23T22:08:58.376Z,46.00
2018-02-23T22:11:26.580Z,46.00
2018-02-23T22:13:54.017Z,46.00
2018-02-23T22:16:21.466Z,46.00
2018-02-23T22:18:49.668Z,46.70
2018-02-23T22:21:17.096Z,46.70
2018-02-23T22:23:45.291Z,46.80
2018-02-23T22:26:12.717Z,46.80
2018-02-23T22:28:40.207Z,46.30
2018-02-23T22:31:07.996Z,46.20
2018-02-23T22:33:35.434Z,46.30
2018-02-23T22:36:02.854Z,46.40
2018-02-23T22:38:30.287Z,46.10
2018-02-23T22:40:57.717Z,46.90
2018-02-23T22:43:25.153Z,46.70
2018-02-23T22:45:52.572Z,46.40
2018-02-23T22:48:19.996Z,47.00
2018-02-23T22:50:47.438Z,47.40
2018-02-23T22:53:14.859Z,47.20
2018-02-23T22:55:43.065Z,47.40
2018-02-23T22:58:10.504Z,47.30
2018-02-23T23:00:38.724Z,48.40
2018-02-23T23:03:06.141Z,48.40
2018-02-23T23:05:34.352Z,48.60
2018-02-23T23:08:01.801Z,48.60
2018-02-23T23:10:29.221Z,48.60
2018-02-23T23:12:57.419Z,49.50
2018-02-23T23:15:24.854Z,49.50
2018-02-23T23:17:53.042Z,49.50
2018-02-23T23:20:21.396Z,49.50
2018-02-23T23:22:48.828Z,49.10
2018-02-23T23:25:16.261Z,49.10
2018-02-23T23:27:43.680Z,49.20
2018-02-23T23:30:11.882Z,48.80
2018-02-23T23:32:39.304Z,48.70
2018-02-23T23:35:06.721Z,48.20
2018-02-23T23:37:34.145Z,48.80
2018-02-23T23:40:01.621Z,48.50
2018-02-23T23:42:29.040Z,48.40
2018-02-23T23:44:57.241Z,48.50
2018-02-23T23:47:24.666Z,48.50
2018-02-23T23:49:52.884Z,48.80
2018-02-23T23:52:20.316Z,48.80
2018-02-23T23:54:47.757Z,48.90
2018-02-23T23:57:15.946Z,48.80
2018-02-23T23:59:44.149Z,48.70
